1859 NOT_NAMED (1859070S05088)


IBTrACS version v04r00. Visit IBTrACS website for data access.
Please direct all questions to the IBTrACS Q and A forum

Storm track - Intensity - Wind Radii - Intensity Data - Source Data - All data

Summary Information

Storm ID 1859070S05088
Start Mar 11 06Z
End Mar 17 06Z
ATCF IDs
Track status Best track data.
Spur track This storm is a spur track associated with the main storm: 1859070S05088

Storm track plot

Map of storm track

Intensity plots

No Intensity information for this storm


Radial wind information

No radial wind information for this storm


Position and Intensity Table

BASIN ISO_TIME_________ NATURE LAT LON
degrees north degrees east
SI 1859-03-11 06:00:00 NR -4.50 88.40
SI 09:00:00 NR -4.60 88.31
SI 12:00:00 NR -4.70 88.22
SI 15:00:00 NR -4.81 88.14
SI 18:00:00 NR -4.91 88.05
SI 21:00:00 NR -5.03 87.96
SI 1859-03-12 00:00:00 NR -5.14 87.87
SI 03:00:00 NR -5.27 87.79
SI 06:00:00 NR -5.40 87.70
SI 09:00:00 NR -5.54 87.61
SI 12:00:00 NR -5.70 87.52
SI 15:00:00 NR -5.88 87.42
SI 18:00:00 NR -6.09 87.30
SI 21:00:00 NR -6.34 87.17
SI 1859-03-13 00:00:00 NR -6.64 87.01
SI 03:00:00 NR -6.99 86.82
SI 06:00:00 NR -7.40 86.60
SI 09:00:00 NR -7.87 86.34
SI 12:00:00 NR -8.39 86.05
SI 15:00:00 NR -8.97 85.73
SI 18:00:00 NR -9.59 85.38
SI 21:00:00 NR -10.26 85.01
SI 1859-03-14 00:00:00 NR -10.95 84.62
SI 03:00:00 NR -11.67 84.22
SI 06:00:00 NR -12.40 83.80
SI 09:00:00 NR -13.14 83.37
SI 12:00:00 NR -13.90 82.92
SI 15:00:00 NR -14.68 82.46
SI 18:00:00 NR -15.47 82.00
SI 21:00:00 NR -16.25 81.53
SI 1859-03-15 00:00:00 NR -17.03 81.07
SI 03:00:00 NR -17.78 80.62
SI 06:00:00 NR -18.50 80.20
SI 09:00:00 NR -19.23 79.78
SI 12:00:00 NR -19.95 79.37
SI 15:00:00 NR -20.63 78.99
SI 18:00:00 NR -21.28 78.62
SI 21:00:00 NR -21.88 78.29
SI 1859-03-16 00:00:00 NR -22.42 77.98
SI 03:00:00 NR -22.90 77.72
SI 06:00:00 NR -23.30 77.50
SI 09:00:00 NR -23.62 77.33
SI 12:00:00 NR -23.85 77.20
SI 15:00:00 NR -24.03 77.11
SI 18:00:00 NR -24.15 77.05
SI 21:00:00 NR -24.22 77.01
SI 1859-03-17 00:00:00 NR -24.27 77.00
SI 03:00:00 NR -24.29 77.00
SI 06:00:00 NR -24.30 77.00

Source Information

Agency Information
USA
TOKYO
CMA
HKO
NEWDELHI
REUNION WMO-Best-Tracks.txt:Line=207:xxxx859031
BOM
NADI
WELLINGTON
DS824
TD9636
TD9635
NEUMANN
MLC

All available IBTrACS Data

SEASON BASIN SUBBASIN ISO_TIME_________ NATURE LAT LON WMO AGENCY DIST2LAND LANDFALL IFLAG USA SSHS REUNION LAT REUNION LON REUNION TYPE REUNION TNUM STORM SPEED STORM DIR
Year degrees north degrees east km km 1 degrees north degrees east 1 kts degrees
1859 SI MM 1859-03-11 06:00:00 NR -4.50 88.40 1144 1144 _____O________ -1 -4.50 88.40 99 9.90 3 223
1859 SI MM 09:00:00 NR -4.60 88.31 1160 1160 _____P________ -1 -4.60 88.31 99 3 221
1859 SI MM 12:00:00 NR -4.70 88.22 1176 1176 _____P________ -1 -4.70 88.22 99 3 220
1859 SI MM 15:00:00 NR -4.81 88.14 1192 1192 _____P________ -1 -4.81 88.14 99 3 220
1859 SI MM 18:00:00 NR -4.91 88.05 1207 1207 _____P________ -1 -4.91 88.05 99 3 218
1859 SI MM 21:00:00 NR -5.03 87.96 1215 1215 _____P________ -1 -5.03 87.96 99 3 217
1859 SI MM 1859-03-12 00:00:00 NR -5.14 87.87 1231 1231 _____P________ -1 -5.14 87.87 99 3 215
1859 SI MM 03:00:00 NR -5.27 87.79 1255 1255 _____P________ -1 -5.27 87.79 99 3 214
1859 SI MM 06:00:00 NR -5.40 87.70 1270 1270 _____O________ -1 -5.40 87.70 99 9.90 3 212
1859 SI MM 09:00:00 NR -5.54 87.61 1286 1286 _____P________ -1 -5.54 87.61 99 4 210
1859 SI MM 12:00:00 NR -5.70 87.52 1310 1310 _____P________ -1 -5.70 87.52 99 4 210
1859 SI MM 15:00:00 NR -5.88 87.42 1333 1333 _____P________ -1 -5.88 87.42 99 5 209
1859 SI MM 18:00:00 NR -6.09 87.30 1357 1357 _____P________ -1 -6.09 87.30 99 5 208
1859 SI MM 21:00:00 NR -6.34 87.17 1381 1381 _____P________ -1 -6.34 87.17 99 6 208
1859 SI MM 1859-03-13 00:00:00 NR -6.64 87.01 1420 1420 _____P________ -1 -6.64 87.01 99 7 208
1859 SI MM 03:00:00 NR -6.99 86.82 1461 1461 _____P________ -1 -6.99 86.82 99 9 208
1859 SI MM 06:00:00 NR -7.40 86.60 1501 1501 _____O________ -1 -7.40 86.60 99 9.90 10 208
1859 SI MM 09:00:00 NR -7.87 86.34 1556 1556 _____P________ -1 -7.87 86.34 99 11 209
1859 SI MM 12:00:00 NR -8.39 86.05 1603 1603 _____P________ -1 -8.39 86.05 99 13 209
1859 SI MM 15:00:00 NR -8.97 85.73 1675 1675 _____P________ -1 -8.97 85.73 99 14 209
1859 SI MM 18:00:00 NR -9.59 85.38 1736 1736 _____P________ -1 -9.59 85.38 99 15 209
1859 SI MM 21:00:00 NR -10.26 85.01 1814 1814 _____P________ -1 -10.26 85.01 99 16 209
1859 SI MM 1859-03-14 00:00:00 NR -10.95 84.62 1892 1892 _____P________ -1 -10.95 84.62 99 16 209
1859 SI MM 03:00:00 NR -11.67 84.22 1971 1971 _____P________ -1 -11.67 84.22 99 17 209
1859 SI MM 06:00:00 NR -12.40 83.80 2051 2051 _____O________ -1 -12.40 83.80 99 9.90 17 209
1859 SI MM 09:00:00 NR -13.14 83.37 2132 2132 _____P________ -1 -13.14 83.37 99 17 210
1859 SI MM 12:00:00 NR -13.90 82.92 2228 2228 _____P________ -1 -13.90 82.92 99 18 210
1859 SI MM 15:00:00 NR -14.68 82.46 2317 2316 _____P________ -1 -14.68 82.46 99 18 210
1859 SI MM 18:00:00 NR -15.47 82.00 2402 2402 _____P________ -1 -15.47 82.00 99 18 210
1859 SI MM 21:00:00 NR -16.25 81.53 2488 2480 _____P________ -1 -16.25 81.53 99 18 210
1859 SI MM 1859-03-15 00:00:00 NR -17.03 81.07 2480 2412 _____P________ -1 -17.03 81.07 99 18 210
1859 SI MM 03:00:00 NR -17.78 80.62 2410 2356 _____P________ -1 -17.78 80.62 99 17 209
1859 SI MM 06:00:00 NR -18.50 80.20 2356 2303 _____O________ -1 -18.50 80.20 99 9.90 17 209
1859 SI MM 09:00:00 NR -19.23 79.78 2303 2254 _____P________ -1 -19.23 79.78 99 17 208
1859 SI MM 12:00:00 NR -19.95 79.37 2254 2207 _____P________ -1 -19.95 79.37 99 16 208
1859 SI MM 15:00:00 NR -20.63 78.99 2207 2163 _____P________ -1 -20.63 78.99 99 15 208
1859 SI MM 18:00:00 NR -21.28 78.62 2163 2132 _____P________ -1 -21.28 78.62 99 14 208
1859 SI MM 21:00:00 NR -21.88 78.29 2132 2102 _____P________ -1 -21.88 78.29 99 13 207
1859 SI MM 1859-03-16 00:00:00 NR -22.42 77.98 2103 2075 _____P________ -1 -22.42 77.98 99 12 207
1859 SI MM 03:00:00 NR -22.90 77.72 2075 2058 _____P________ -1 -22.90 77.72 99 10 207
1859 SI MM 06:00:00 NR -23.30 77.50 reunion 2059 2042 _____O________ -1 -23.30 77.50 99 9.90 8 207
1859 SI MM 09:00:00 NR -23.62 77.33 2042 2034 _____P________ -1 -23.62 77.33 99 6 206
1859 SI MM 12:00:00 NR -23.85 77.20 2036 2027 _____P________ -1 -23.85 77.20 99 5 206
1859 SI MM 15:00:00 NR -24.03 77.11 2027 2027 _____P________ -1 -24.03 77.11 99 3 205
1859 SI MM 18:00:00 NR -24.15 77.05 2019 2019 _____P________ -1 -24.15 77.05 99 2 203
1859 SI MM 21:00:00 NR -24.22 77.01 2020 2020 _____P________ -1 -24.22 77.01 99 1 197
1859 SI MM 1859-03-17 00:00:00 NR -24.27 77.00 2022 2022 _____P________ -1 -24.27 77.00 99 1 197
1859 SI MM 03:00:00 NR -24.29 77.00 2022 2022 _____P________ -1 -24.29 77.00 99 0 146
1859 SI MM 06:00:00 NR -24.30 77.00 reunion 2022 _____O________ -1 -24.30 77.00 99 9.90 0 0